createdAt,value
2019-04-19T00:00:38.263Z,0
2019-04-19T00:01:18.846Z,0
2019-04-19T00:02:04.750Z,0
2019-04-19T00:02:43.537Z,0
2019-04-19T00:03:27.264Z,0
2019-04-19T00:04:04.626Z,0
2019-04-19T00:04:46.873Z,0
2019-04-19T00:05:24.090Z,0
2019-04-19T00:06:04.949Z,0
2019-04-19T00:06:44.923Z,0
2019-04-19T00:07:27.063Z,0
2019-04-19T00:08:19.266Z,0
2019-04-19T00:09:03.670Z,0
2019-04-19T00:09:34.273Z,0
2019-04-19T00:10:21.373Z,0
2019-04-19T00:10:54.286Z,0
2019-04-19T00:11:35.901Z,0
2019-04-19T00:12:21.631Z,0
2019-04-19T00:12:53.266Z,0
2019-04-19T00:13:30.380Z,0
2019-04-19T00:14:10.691Z,0
2019-04-19T00:14:50.628Z,0
2019-04-19T00:15:30.787Z,0
2019-04-19T00:16:11.352Z,0
2019-04-19T00:16:53.041Z,0
2019-04-19T00:17:34.207Z,0
2019-04-19T00:18:16.366Z,0
2019-04-19T00:19:13.905Z,0
2019-04-19T00:19:52.144Z,0
2019-04-19T00:20:36.242Z,0
2019-04-19T00:21:12.089Z,0
2019-04-19T00:21:57.285Z,0
2019-04-19T00:22:31.563Z,0
2019-04-19T00:23:08.314Z,0
2019-04-19T00:23:40.456Z,0
2019-04-19T00:24:18.633Z,0
2019-04-19T00:24:58.700Z,0
2019-04-19T00:25:39.250Z,0
2019-04-19T00:26:20.862Z,0
2019-04-19T00:27:01.977Z,0
2019-04-19T00:27:46.611Z,0
2019-04-19T00:28:29.435Z,0
2019-04-19T00:29:06.753Z,0
2019-04-19T00:29:52.451Z,0
2019-04-19T00:30:32.429Z,0
2019-04-19T00:31:16.620Z,0
2019-04-19T00:32:00.086Z,0
2019-04-19T00:32:37.786Z,0
2019-04-19T00:33:17.745Z,0
2019-04-19T00:33:50.424Z,0
2019-04-19T00:34:27.422Z,0
2019-04-19T00:35:07.567Z,0
2019-04-19T00:35:48.133Z,0
2019-04-19T00:36:29.717Z,0
2019-04-19T00:37:09.969Z,0
2019-04-19T00:37:51.075Z,0
2019-04-19T00:38:50.458Z,0
2019-04-19T00:39:28.820Z,0
2019-04-19T00:40:10.154Z,0
2019-04-19T00:40:45.789Z,0
2019-04-19T00:41:27.624Z,0
2019-04-19T00:42:10.201Z,0
2019-04-19T00:42:47.828Z,0
2019-04-19T00:43:34.025Z,0
2019-04-19T00:44:06.490Z,0
2019-04-19T00:44:56.535Z,0
2019-04-19T00:45:30.715Z,0
2019-04-19T00:46:15.673Z,0
2019-04-19T00:46:58.244Z,0
2019-04-19T00:47:32.832Z,0
2019-04-19T00:48:08.250Z,0
2019-04-19T00:48:51.189Z,0
2019-04-19T00:49:27.667Z,0
2019-04-19T00:50:12.412Z,0
2019-04-19T00:50:56.167Z,0
2019-04-19T00:51:39.847Z,0
2019-04-19T00:52:14.507Z,0
2019-04-19T00:52:56.735Z,0
2019-04-19T00:53:31.511Z,0
2019-04-19T00:54:12.686Z,0
2019-04-19T00:54:56.317Z,0
2019-04-19T00:55:31.533Z,0
2019-04-19T00:56:13.224Z,0
2019-04-19T00:56:54.911Z,0
2019-04-19T00:57:33.300Z,0
2019-04-19T00:58:14.560Z,0
2019-04-19T00:58:53.061Z,0
2019-04-19T00:59:33.042Z,0
2019-04-19T01:00:10.928Z,0
2019-04-19T01:00:50.858Z,0
2019-04-19T01:01:31.193Z,0
2019-04-19T01:02:15.421Z,0
2019-04-19T01:02:53.369Z,0
2019-04-19T01:03:36.548Z,0
2019-04-19T01:04:18.715Z,0
2019-04-19T01:04:57.028Z,0
2019-04-19T01:05:42.296Z,0
2019-04-19T01:06:17.155Z,0
2019-04-19T01:06:58.589Z,0
2019-04-19T01:07:37.826Z,0
2019-04-19T01:08:18.923Z,0
2019-04-19T01:09:04.565Z,0
2019-04-19T01:09:46.133Z,0
2019-04-19T01:10:31.012Z,0
2019-04-19T01:11:12.520Z,0
2019-04-19T01:11:53.901Z,0
2019-04-19T01:12:28.702Z,0
2019-04-19T01:13:10.488Z,0
2019-04-19T01:13:55.740Z,0
2019-04-19T01:14:32.985Z,0
2019-04-19T01:15:13.677Z,0
2019-04-19T01:15:55.285Z,0
2019-04-19T01:16:31.594Z,0
2019-04-19T01:17:16.140Z,0
2019-04-19T01:17:58.419Z,0
2019-04-19T01:18:34.939Z,0
2019-04-19T01:19:08.962Z,0
2019-04-19T01:19:50.874Z,0
2019-04-19T01:20:26.828Z,0
2019-04-19T01:21:06.977Z,0
2019-04-19T01:21:47.090Z,0
2019-04-19T01:22:30.060Z,0
2019-04-19T01:23:12.008Z,0
2019-04-19T01:23:52.779Z,0
2019-04-19T01:24:32.201Z,0
2019-04-19T01:25:16.090Z,0
2019-04-19T01:25:53.768Z,0
2019-04-19T01:26:37.044Z,0
2019-04-19T01:27:13.097Z,0
2019-04-19T01:27:53.052Z,0
2019-04-19T01:28:33.709Z,0
2019-04-19T01:29:15.920Z,0
2019-04-19T01:29:56.496Z,0
2019-04-19T01:30:38.396Z,0
2019-04-19T01:31:19.434Z,0
2019-04-19T01:32:03.066Z,0
2019-04-19T01:32:42.901Z,0
2019-04-19T01:33:18.830Z,0
2019-04-19T01:33:57.193Z,0
2019-04-19T01:34:37.777Z,0
2019-04-19T01:35:20.228Z,0
2019-04-19T01:35:59.891Z,0
2019-04-19T01:36:43.661Z,0
2019-04-19T01:37:23.405Z,0
2019-04-19T01:38:03.912Z,0
2019-04-19T01:38:47.801Z,0
2019-04-19T01:39:35.737Z,0
2019-04-19T01:40:16.584Z,0
2019-04-19T01:41:02.848Z,0
2019-04-19T01:41:36.967Z,0
2019-04-19T01:42:20.749Z,0
2019-04-19T01:43:01.503Z,0
2019-04-19T01:43:43.817Z,0
2019-04-19T01:44:27.501Z,0
2019-04-19T01:44:59.901Z,0
2019-04-19T01:45:46.614Z,0
2019-04-19T01:46:20.951Z,0
2019-04-19T01:46:59.260Z,0
2019-04-19T01:47:46.193Z,0
2019-04-19T01:48:28.000Z,0
2019-04-19T01:49:00.212Z,0
2019-04-19T01:49:47.183Z,0
2019-04-19T01:50:20.917Z,0
2019-04-19T01:51:08.474Z,0
2019-04-19T01:51:47.679Z,0
2019-04-19T01:52:40.566Z,0
2019-04-19T01:53:13.387Z,0
2019-04-19T01:53:49.744Z,0
2019-04-19T01:54:29.385Z,0
2019-04-19T01:55:06.633Z,0
2019-04-19T01:55:38.915Z,0
2019-04-19T01:56:18.762Z,0
2019-04-19T01:57:00.616Z,0
2019-04-19T01:57:37.222Z,0
2019-04-19T01:58:19.596Z,0
2019-04-19T01:59:00.512Z,0
2019-04-19T01:59:44.851Z,0
2019-04-19T02:00:29.071Z,0
2019-04-19T02:01:02.077Z,0
2019-04-19T02:01:41.643Z,0
2019-04-19T02:02:24.832Z,0
2019-04-19T02:03:03.331Z,0
2019-04-19T02:03:46.609Z,0
2019-04-19T02:04:26.611Z,0
2019-04-19T02:05:09.260Z,0
2019-04-19T02:05:50.458Z,0
2019-04-19T02:06:30.034Z,0
2019-04-19T02:07:12.392Z,0
2019-04-19T02:07:48.595Z,0
2019-04-19T02:08:27.032Z,0
2019-04-19T02:09:07.048Z,0
2019-04-19T02:10:02.475Z,0
2019-04-19T02:10:40.558Z,0
2019-04-19T02:11:20.722Z,0
2019-04-19T02:11:57.773Z,0
2019-04-19T02:12:41.714Z,0
2019-04-19T02:13:19.540Z,0
2019-04-19T02:14:01.641Z,0
2019-04-19T02:14:40.177Z,0
2019-04-19T02:15:17.054Z,0
2019-04-19T02:15:54.606Z,0
2019-04-19T02:16:34.527Z,0
2019-04-19T02:17:16.423Z,0
2019-04-19T02:17:55.823Z,0
2019-04-19T02:18:35.501Z,0
2019-04-19T02:19:19.379Z,0
2019-04-19T02:20:00.905Z,0
2019-04-19T02:20:41.233Z,0
2019-04-19T02:21:22.395Z,0
2019-04-19T02:22:00.005Z,0
2019-04-19T02:22:39.835Z,0
2019-04-19T02:23:20.140Z,0
2019-04-19T02:24:02.498Z,0
2019-04-19T02:24:45.731Z,0
2019-04-19T02:25:24.563Z,0
2019-04-19T02:26:06.381Z,0
2019-04-19T02:26:46.204Z,0
2019-04-19T02:27:23.099Z,0
2019-04-19T02:28:02.876Z,0
2019-04-19T02:28:44.506Z,0
2019-04-19T02:29:26.990Z,0
2019-04-19T02:30:13.829Z,0
2019-04-19T02:31:00.851Z,0
2019-04-19T02:31:43.176Z,0
2019-04-19T02:32:27.443Z,0
2019-04-19T02:33:06.785Z,0
2019-04-19T02:33:52.578Z,0
2019-04-19T02:34:33.280Z,0
2019-04-19T02:35:10.987Z,0
2019-04-19T02:35:50.572Z,0
2019-04-19T02:36:43.915Z,0
2019-04-19T02:38:36.124Z,0
2019-04-19T02:39:20.551Z,0
2019-04-19T02:40:04.093Z,0
2019-04-19T02:40:52.171Z,0
2019-04-19T02:41:24.185Z,0
2019-04-19T02:42:05.755Z,0
2019-04-19T02:43:23.625Z,0
2019-04-19T02:44:03.788Z,0
2019-04-19T02:44:49.208Z,0
2019-04-19T02:46:22.739Z,0
2019-04-19T02:46:57.630Z,0
2019-04-19T02:47:36.512Z,0
2019-04-19T02:48:00.326Z,0
2019-04-19T02:48:53.532Z,0
2019-04-19T02:49:35.393Z,0
2019-04-19T02:51:07.470Z,0
2019-04-19T02:51:29.539Z,0
2019-04-19T02:52:46.226Z,0
2019-04-19T02:53:29.383Z,0
2019-04-19T02:54:09.435Z,0
2019-04-19T02:55:26.372Z,0
2019-04-19T02:56:23.362Z,0
2019-04-19T02:57:09.851Z,0
2019-04-19T02:58:58.629Z,0
2019-04-19T03:00:21.133Z,0
2019-04-19T03:01:02.156Z,0
2019-04-19T03:02:24.052Z,0
2019-04-19T03:03:00.837Z,0
2019-04-19T03:03:30.670Z,0
2019-04-19T03:04:36.096Z,0
2019-04-19T03:05:07.032Z,0
2019-04-19T03:05:36.390Z,0
2019-04-19T03:06:08.551Z,0
2019-04-19T03:06:42.551Z,0
2019-04-19T03:07:16.011Z,0
2019-04-19T03:07:57.631Z,0
2019-04-19T03:08:37.548Z,0
2019-04-19T03:09:17.761Z,0
2019-04-19T03:09:58.341Z,0
2019-04-19T03:10:53.402Z,0
2019-04-19T03:11:34.972Z,0
2019-04-19T03:12:16.429Z,0
2019-04-19T03:12:58.403Z,0
2019-04-19T03:13:35.957Z,0
2019-04-19T03:14:16.200Z,0
2019-04-19T03:14:55.980Z,0
2019-04-19T03:15:43.850Z,0
2019-04-19T03:16:25.059Z,0
2019-04-19T03:17:03.606Z,0
2019-04-19T03:17:55.510Z,0
2019-04-19T03:18:28.675Z,0
2019-04-19T03:19:00.624Z,0
2019-04-19T03:19:43.742Z,0
2019-04-19T03:20:21.287Z,0
2019-04-19T03:20:57.181Z,0
2019-04-19T03:21:41.611Z,0
2019-04-19T03:22:22.705Z,0
2019-04-19T03:23:02.801Z,0
2019-04-19T03:23:42.068Z,0
2019-04-19T03:24:22.225Z,0
2019-04-19T03:25:10.674Z,0
2019-04-19T03:25:43.777Z,0
2019-04-19T03:26:25.050Z,0
2019-04-19T03:27:03.005Z,0
2019-04-19T03:27:46.993Z,0
2019-04-19T03:28:21.402Z,0
2019-04-19T03:28:57.664Z,0
2019-04-19T03:29:40.393Z,0
2019-04-19T03:30:34.987Z,0
2019-04-19T03:32:09.534Z,0
2019-04-19T03:33:04.059Z,0
2019-04-19T03:34:50.174Z,0
2019-04-19T03:35:10.696Z,0
2019-04-19T03:35:59.293Z,0
2019-04-19T03:36:36.368Z,0
2019-04-19T03:37:20.110Z,0
2019-04-19T03:38:01.518Z,0
2019-04-19T03:38:38.631Z,0
2019-04-19T03:39:22.772Z,0
2019-04-19T03:40:12.578Z,0
2019-04-19T03:40:43.694Z,0
2019-04-19T03:42:04.838Z,0
2019-04-19T03:42:44.336Z,0
2019-04-19T03:43:31.214Z,0
2019-04-19T03:44:03.174Z,0
2019-04-19T03:44:40.029Z,0
2019-04-19T03:45:21.741Z,0
2019-04-19T03:46:07.587Z,0
2019-04-19T03:46:57.620Z,0
2019-04-19T03:47:27.664Z,0
2019-04-19T03:48:08.693Z,0
2019-04-19T03:48:47.409Z,0
2019-04-19T03:49:34.618Z,0
2019-04-19T03:50:10.312Z,0
2019-04-19T03:50:54.337Z,0
2019-04-19T03:51:28.413Z,0
2019-04-19T03:52:25.766Z,0
2019-04-19T03:52:48.283Z,0
2019-04-19T03:53:38.264Z,0
2019-04-19T03:54:11.168Z,0
2019-04-19T03:54:48.130Z,0
2019-04-19T03:55:35.574Z,0
2019-04-19T03:56:15.405Z,0
2019-04-19T03:56:54.658Z,0
2019-04-19T03:57:31.093Z,0
2019-04-19T03:58:05.075Z,0
2019-04-19T03:58:39.758Z,0
2019-04-19T03:59:20.388Z,0
2019-04-19T04:00:00.451Z,0
2019-04-19T04:00:41.015Z,0
2019-04-19T04:01:21.594Z,0
2019-04-19T04:02:02.890Z,0
2019-04-19T04:02:44.685Z,0
2019-04-19T04:03:30.198Z,5
2019-04-19T04:04:11.035Z,5
2019-04-19T04:04:52.543Z,5
2019-04-19T04:05:27.253Z,5
2019-04-19T04:06:06.212Z,5
2019-04-19T04:06:47.674Z,5
2019-04-19T04:07:29.364Z,5
2019-04-19T04:08:12.831Z,5
2019-04-19T04:08:55.180Z,5
2019-04-19T04:09:33.032Z,5
2019-04-19T04:10:13.045Z,5
2019-04-19T04:10:50.299Z,5
2019-04-19T04:11:31.804Z,5
2019-04-19T04:12:24.711Z,5
2019-04-19T04:12:59.961Z,5
2019-04-19T04:13:40.645Z,10
2019-04-19T04:14:24.449Z,10
2019-04-19T04:15:06.896Z,10
2019-04-19T04:15:46.474Z,10
2019-04-19T04:16:23.847Z,10
2019-04-19T04:16:55.440Z,10
2019-04-19T04:17:35.468Z,10
2019-04-19T04:18:15.978Z,10
2019-04-19T04:18:57.551Z,10
2019-04-19T04:19:37.584Z,10
2019-04-19T04:20:17.785Z,10
2019-04-19T04:20:59.513Z,10
2019-04-19T04:21:43.308Z,15
2019-04-19T04:22:24.662Z,15
2019-04-19T04:23:03.415Z,15
2019-04-19T04:23:44.240Z,15
2019-04-19T04:24:29.095Z,15
2019-04-19T04:25:09.195Z,15
2019-04-19T04:25:52.191Z,15
2019-04-19T04:26:31.144Z,15
2019-04-19T04:27:09.409Z,15
2019-04-19T04:27:56.325Z,15
2019-04-19T04:28:39.271Z,20
2019-04-19T04:29:14.504Z,20
2019-04-19T04:29:59.828Z,20
2019-04-19T04:30:34.259Z,20
2019-04-19T04:31:17.086Z,20
2019-04-19T04:31:57.840Z,20
2019-04-19T04:32:42.730Z,20
2019-04-19T04:33:22.489Z,20
2019-04-19T04:34:00.248Z,20
2019-04-19T04:34:40.660Z,25
2019-04-19T04:35:27.745Z,25
2019-04-19T04:36:11.515Z,25
2019-04-19T04:37:29.160Z,25
2019-04-19T04:38:03.587Z,25
2019-04-19T04:38:38.326Z,25
2019-04-19T04:39:15.467Z,25
2019-04-19T04:39:55.585Z,25
2019-04-19T04:40:35.898Z,30
2019-04-19T04:41:21.707Z,30
2019-04-19T04:42:07.726Z,30
2019-04-19T04:42:43.201Z,30
2019-04-19T04:43:31.025Z,30
2019-04-19T04:44:13.255Z,30
2019-04-19T04:45:08.875Z,30
2019-04-19T04:45:38.350Z,30
2019-04-19T04:46:20.838Z,35
2019-04-19T04:47:01.875Z,35
2019-04-19T04:47:39.206Z,35
2019-04-19T04:48:24.894Z,35
2019-04-19T04:48:57.904Z,35
2019-04-19T04:49:47.484Z,35
2019-04-19T04:50:23.780Z,35
2019-04-19T04:51:04.275Z,40
2019-04-19T04:51:38.485Z,40
2019-04-19T04:52:14.953Z,40
2019-04-19T04:52:47.432Z,40
2019-04-19T04:53:26.209Z,40
2019-04-19T04:54:08.045Z,40
2019-04-19T04:54:48.255Z,40
2019-04-19T04:55:28.418Z,40
2019-04-19T04:56:10.186Z,45
2019-04-19T04:56:58.811Z,45
2019-04-19T04:57:38.246Z,45
2019-04-19T04:58:16.130Z,45
2019-04-19T04:58:51.207Z,45
2019-04-19T04:59:34.587Z,45
2019-04-19T05:00:12.016Z,45
2019-04-19T05:00:58.649Z,45
2019-04-19T05:01:41.597Z,50
2019-04-19T05:02:25.838Z,50
2019-04-19T05:03:09.078Z,50
2019-04-19T05:03:53.671Z,50
2019-04-19T05:04:26.842Z,50
2019-04-19T05:05:14.654Z,50
2019-04-19T05:05:51.480Z,50
2019-04-19T05:06:33.285Z,55
2019-04-19T05:07:14.995Z,55
2019-04-19T05:07:56.615Z,55
2019-04-19T05:08:34.992Z,55
2019-04-19T05:09:22.413Z,55
2019-04-19T05:09:57.888Z,55
2019-04-19T05:10:35.230Z,55
2019-04-19T05:11:11.639Z,60
2019-04-19T05:12:06.498Z,60
2019-04-19T05:12:58.753Z,60
2019-04-19T05:14:00.186Z,60
2019-04-19T05:14:40.062Z,60
2019-04-19T05:15:26.142Z,60
2019-04-19T05:16:04.081Z,65
2019-04-19T05:16:50.740Z,65
2019-04-19T05:17:31.997Z,65
2019-04-19T05:18:11.651Z,65
2019-04-19T05:18:44.668Z,65
2019-04-19T05:19:22.174Z,65
2019-04-19T05:20:09.018Z,65
2019-04-19T05:20:45.821Z,70
2019-04-19T05:21:27.035Z,70
2019-04-19T05:22:04.354Z,70
2019-04-19T05:22:49.739Z,70
2019-04-19T05:23:25.897Z,70
2019-04-19T05:24:25.184Z,70
2019-04-19T05:24:56.240Z,70
2019-04-19T05:25:35.615Z,75
2019-04-19T05:26:22.867Z,75
2019-04-19T05:26:56.197Z,75
2019-04-19T05:27:32.674Z,75
2019-04-19T05:28:16.516Z,75
2019-04-19T05:28:49.941Z,75
2019-04-19T05:29:26.349Z,80
2019-04-19T05:29:58.242Z,80
2019-04-19T05:30:46.675Z,80
2019-04-19T05:31:27.796Z,80
2019-04-19T05:32:07.052Z,80
2019-04-19T05:32:43.605Z,80
2019-04-19T05:33:31.682Z,80
2019-04-19T05:34:19.915Z,85
2019-04-19T05:34:54.604Z,85
2019-04-19T05:35:33.583Z,85
2019-04-19T05:36:17.619Z,85
2019-04-19T05:36:57.217Z,85
2019-04-19T05:38:19.473Z,85
2019-04-19T05:39:02.457Z,90
2019-04-19T05:39:48.047Z,90
2019-04-19T05:40:22.612Z,90
2019-04-19T05:40:58.938Z,90
2019-04-19T05:41:43.392Z,90
2019-04-19T05:42:24.417Z,90
2019-04-19T05:43:02.081Z,95
2019-04-19T05:44:44.853Z,95
2019-04-19T05:45:57.776Z,95
2019-04-19T05:46:34.796Z,95
2019-04-19T05:47:08.743Z,95
2019-04-19T05:47:42.704Z,100
2019-04-19T05:48:23.395Z,100
2019-04-19T05:49:10.096Z,100
2019-04-19T05:49:50.472Z,100
2019-04-19T05:50:35.520Z,100
2019-04-19T05:51:19.379Z,100
2019-04-19T05:51:50.942Z,105
2019-04-19T05:52:33.994Z,105
2019-04-19T05:53:09.759Z,105
2019-04-19T05:53:44.588Z,105
2019-04-19T05:54:19.098Z,105
2019-04-19T05:55:00.027Z,105
2019-04-19T05:55:39.311Z,110
2019-04-19T05:56:20.058Z,110
2019-04-19T05:57:16.807Z,110
2019-04-19T05:57:56.437Z,110
2019-04-19T05:58:32.481Z,110
2019-04-19T05:59:10.620Z,110
2019-04-19T05:59:52.532Z,115
2019-04-19T06:00:37.451Z,115
2019-04-19T06:01:23.414Z,115
2019-04-19T06:01:58.545Z,115
2019-04-19T06:02:33.011Z,115
2019-04-19T06:03:16.318Z,115
2019-04-19T06:04:07.327Z,115
2019-04-19T06:04:48.047Z,115
2019-04-19T06:05:25.162Z,115
2019-04-19T06:06:13.942Z,115
2019-04-19T06:06:52.151Z,115
2019-04-19T06:07:26.317Z,120
2019-04-19T06:08:01.330Z,120
2019-04-19T06:08:34.134Z,120
2019-04-19T06:09:11.230Z,120
2019-04-19T06:09:51.942Z,120
2019-04-19T06:10:39.813Z,125
2019-04-19T06:11:15.195Z,125
2019-04-19T06:11:53.458Z,125
2019-04-19T06:12:36.973Z,125
2019-04-19T06:13:16.833Z,130
2019-04-19T06:14:16.688Z,130
2019-04-19T06:15:02.177Z,130
2019-04-19T06:15:42.731Z,135
2019-04-19T06:16:20.702Z,135
2019-04-19T06:16:54.570Z,135
2019-04-19T06:17:36.424Z,140
2019-04-19T06:18:16.227Z,140
2019-04-19T06:18:54.764Z,145
2019-04-19T06:19:39.780Z,150
2019-04-19T06:20:20.231Z,150
2019-04-19T06:21:10.000Z,155
2019-04-19T06:21:42.345Z,160
2019-04-19T06:22:15.886Z,230
2019-04-19T06:23:06.972Z,690
2019-04-19T06:23:53.430Z,1220
2019-04-19T06:24:31.333Z,1540
2019-04-19T06:25:05.921Z,1570
2019-04-19T06:26:26.260Z,1620
2019-04-19T06:27:17.560Z,1505
2019-04-19T06:28:08.760Z,1500
2019-04-19T06:28:43.466Z,1605
2019-04-19T06:29:14.484Z,1650
2019-04-19T06:29:58.464Z,1620
2019-04-19T06:30:36.027Z,1615
2019-04-19T06:31:21.485Z,1655
2019-04-19T06:32:01.619Z,1715
2019-04-19T06:32:38.558Z,1715
2019-04-19T06:33:16.823Z,1650
2019-04-19T06:33:57.481Z,1630
2019-04-19T06:34:39.847Z,1680
2019-04-19T06:35:13.784Z,1685
2019-04-19T06:35:50.222Z,1650
2019-04-19T06:36:23.202Z,1675
2019-04-19T06:37:09.966Z,1695
2019-04-19T06:37:44.511Z,1700
2019-04-19T06:38:25.283Z,1660
2019-04-19T06:39:05.902Z,1655
2019-04-19T06:39:50.702Z,1690
2019-04-19T06:40:31.010Z,1725
2019-04-19T06:41:13.486Z,1780
2019-04-19T06:41:55.669Z,1820
2019-04-19T06:42:35.528Z,1815
2019-04-19T06:43:15.508Z,1715
2019-04-19T06:44:01.247Z,1725
2019-04-19T06:44:50.210Z,1690
2019-04-19T06:45:26.570Z,1735
2019-04-19T06:46:05.609Z,1790
2019-04-19T06:46:46.464Z,1840
2019-04-19T06:47:21.684Z,1820
2019-04-19T06:48:03.517Z,1805
2019-04-19T06:48:38.228Z,1855
2019-04-19T06:49:21.916Z,1855
2019-04-19T06:49:58.882Z,1825
2019-04-19T06:50:42.904Z,1830
2019-04-19T06:51:28.199Z,1865
2019-04-19T06:52:07.636Z,1815
2019-04-19T06:52:41.228Z,1785
2019-04-19T06:53:21.540Z,1770
2019-04-19T06:54:07.037Z,1745
2019-04-19T06:54:44.534Z,1705
2019-04-19T06:55:29.726Z,1725
2019-04-19T06:56:14.217Z,1835
2019-04-19T06:56:53.161Z,1860
2019-04-19T06:57:32.226Z,1880
2019-04-19T06:58:15.523Z,1760
2019-04-19T06:58:57.549Z,1745
2019-04-19T06:59:41.780Z,1815
2019-04-19T07:00:22.293Z,1890
2019-04-19T07:01:03.015Z,1845
2019-04-19T07:01:39.180Z,1815
2019-04-19T07:02:12.171Z,1800
2019-04-19T07:02:53.907Z,1825
2019-04-19T07:03:34.413Z,1815
2019-04-19T07:04:14.863Z,1845
2019-04-19T07:05:12.341Z,1805
2019-04-19T07:05:46.084Z,1780
2019-04-19T07:06:31.984Z,1790
2019-04-19T07:07:14.616Z,1805
2019-04-19T07:08:02.144Z,1750
2019-04-19T07:08:55.644Z,1755
2019-04-19T07:10:07.727Z,1845
2019-04-19T07:11:00.075Z,1800
2019-04-19T07:11:19.622Z,1730
2019-04-19T07:12:10.438Z,1765
2019-04-19T07:12:39.894Z,1830
2019-04-19T07:13:17.063Z,1870
2019-04-19T07:13:52.992Z,1785
2019-04-19T07:14:29.446Z,1650
2019-04-19T07:15:36.181Z,1655
2019-04-19T07:16:12.929Z,1785
2019-04-19T07:16:49.341Z,1785
2019-04-19T07:17:24.854Z,1795
2019-04-19T07:18:02.097Z,1820
2019-04-19T07:18:42.199Z,1765
2019-04-19T07:19:29.852Z,1730
2019-04-19T07:20:07.561Z,1730
2019-04-19T07:20:55.681Z,1730
2019-04-19T07:21:33.311Z,1690
2019-04-19T07:22:10.479Z,1690
2019-04-19T07:22:51.744Z,1665
2019-04-19T07:23:38.464Z,1625
2019-04-19T07:24:29.221Z,1615
2019-04-19T07:25:04.513Z,1665
2019-04-19T07:25:46.274Z,1620
2019-04-19T07:26:26.257Z,1585
2019-04-19T07:27:02.558Z,1585
2019-04-19T07:27:40.039Z,1605
2019-04-19T07:28:17.129Z,1530
2019-04-19T07:28:51.508Z,1450
2019-04-19T07:29:33.618Z,1355
2019-04-19T07:30:14.006Z,1335
2019-04-19T07:30:59.553Z,1285
2019-04-19T07:31:38.496Z,1230
2019-04-19T07:32:25.171Z,1170
2019-04-19T07:33:07.169Z,1110
2019-04-19T07:33:49.941Z,1050
2019-04-19T07:34:36.940Z,945
2019-04-19T07:35:18.721Z,855
2019-04-19T07:36:06.158Z,815
2019-04-19T07:36:44.290Z,785
2019-04-19T07:37:23.341Z,765
2019-04-19T07:38:16.822Z,745
2019-04-19T07:38:53.222Z,730
2019-04-19T07:39:27.550Z,725
2019-04-19T07:40:17.338Z,720
2019-04-19T07:40:54.016Z,705
2019-04-19T07:41:32.701Z,710
2019-04-19T07:42:22.015Z,710
2019-04-19T07:42:56.119Z,695
2019-04-19T07:43:33.413Z,690
2019-04-19T07:44:17.124Z,680
2019-04-19T07:44:51.162Z,665
2019-04-19T07:45:32.873Z,665
2019-04-19T07:46:25.059Z,665
2019-04-19T07:47:00.786Z,675
2019-04-19T07:47:39.982Z,680
2019-04-19T07:48:15.887Z,665
2019-04-19T07:48:55.380Z,650
2019-04-19T07:49:43.079Z,645
2019-04-19T07:50:22.363Z,630
2019-04-19T07:51:03.766Z,635
2019-04-19T07:51:47.530Z,645
2019-04-19T07:52:23.234Z,640
2019-04-19T07:53:02.526Z,620
2019-04-19T07:53:47.503Z,610
2019-04-19T07:54:28.791Z,615
2019-04-19T07:55:09.843Z,615
2019-04-19T07:56:43.931Z,615
2019-04-19T07:58:01.601Z,625
2019-04-19T07:58:55.165Z,625
2019-04-19T07:59:38.376Z,620
2019-04-19T08:00:28.409Z,605
2019-04-19T08:01:07.605Z,600
2019-04-19T08:01:52.332Z,600
2019-04-19T08:02:35.763Z,610
2019-04-19T08:03:05.163Z,610
2019-04-19T08:05:21.539Z,565
2019-04-19T08:05:54.155Z,525
2019-04-19T08:06:39.338Z,495
2019-04-19T08:09:23.544Z,430
2019-04-19T08:10:03.274Z,425
2019-04-19T08:11:35.496Z,415
2019-04-19T08:12:06.936Z,410
2019-04-19T08:12:41.952Z,405
2019-04-19T08:13:39.585Z,405
2019-04-19T08:15:36.112Z,390
2019-04-19T08:17:41.165Z,375
2019-04-19T08:18:20.518Z,370
2019-04-19T08:27:37.318Z,290
2019-04-19T08:28:23.257Z,285
2019-04-19T08:29:06.158Z,280
2019-04-19T08:29:43.652Z,280
2019-04-19T08:30:19.103Z,280
2019-04-19T08:31:01.990Z,270
2019-04-19T08:31:38.859Z,265
2019-04-19T08:32:21.535Z,260
2019-04-19T08:33:01.830Z,260
2019-04-19T08:33:42.828Z,260
2019-04-19T08:34:27.328Z,255
2019-04-19T08:35:08.223Z,250
2019-04-19T08:35:50.295Z,245
2019-04-19T08:36:32.933Z,245
2019-04-19T08:37:16.053Z,240
2019-04-19T08:37:51.477Z,235
2019-04-19T08:38:32.262Z,235
2019-04-19T08:40:08.014Z,230
2019-04-19T08:40:37.210Z,230
2019-04-19T08:40:52.810Z,225
2019-04-19T08:41:25.305Z,220
2019-04-19T08:42:14.759Z,220
2019-04-19T08:42:53.727Z,215
2019-04-19T08:43:37.682Z,215
2019-04-19T08:44:17.876Z,210
2019-04-19T08:44:51.140Z,210
2019-04-19T08:45:26.888Z,210
2019-04-19T08:46:06.998Z,210
2019-04-19T08:46:47.156Z,205
2019-04-19T08:47:35.506Z,205
2019-04-19T08:48:16.826Z,200
2019-04-19T08:48:57.471Z,200
2019-04-19T08:49:39.856Z,200
2019-04-19T08:50:17.197Z,195
2019-04-19T08:50:59.744Z,195
2019-04-19T08:51:43.322Z,190
2019-04-19T08:52:27.064Z,190
2019-04-19T08:53:22.948Z,190
2019-04-19T08:53:58.577Z,185
2019-04-19T08:54:46.161Z,185
2019-04-19T08:55:28.672Z,185
2019-04-19T08:56:07.850Z,180
2019-04-19T08:56:40.886Z,180
2019-04-19T08:57:14.569Z,180
2019-04-19T08:57:59.534Z,175
2019-04-19T08:58:51.853Z,175
2019-04-19T08:59:38.315Z,175
2019-04-19T09:00:16.250Z,175
2019-04-19T09:01:13.637Z,175
2019-04-19T09:01:40.061Z,170
2019-04-19T09:02:15.219Z,170
2019-04-19T09:02:53.679Z,170
2019-04-19T09:03:45.042Z,170
2019-04-19T09:04:23.255Z,170
2019-04-19T09:05:03.840Z,165
2019-04-19T09:05:38.768Z,165
2019-04-19T09:07:53.390Z,165
2019-04-19T09:08:27.780Z,160
2019-04-19T09:09:06.106Z,160
2019-04-19T09:10:01.075Z,160
2019-04-19T09:10:30.198Z,160
2019-04-19T09:11:10.797Z,160
2019-04-19T09:11:53.306Z,155
2019-04-19T09:12:30.500Z,155
2019-04-19T09:13:22.050Z,155
2019-04-19T09:13:55.390Z,155
2019-04-19T09:14:39.345Z,155
2019-04-19T09:15:16.187Z,155
2019-04-19T09:16:00.451Z,155
2019-04-19T09:16:40.762Z,155
2019-04-19T09:17:22.645Z,155
2019-04-19T09:18:24.719Z,155
2019-04-19T09:18:50.208Z,155
2019-04-19T09:19:34.516Z,155
2019-04-19T09:20:50.313Z,155
2019-04-19T09:21:27.237Z,150
2019-04-19T09:22:06.343Z,150
2019-04-19T09:22:44.805Z,150
2019-04-19T09:23:26.918Z,150
2019-04-19T09:24:02.750Z,150
2019-04-19T09:24:47.720Z,150
2019-04-19T09:25:28.504Z,150
2019-04-19T09:26:14.773Z,150
2019-04-19T09:26:57.400Z,145
2019-04-19T09:27:47.190Z,145
2019-04-19T09:28:35.883Z,145
2019-04-19T09:29:09.659Z,150
2019-04-19T09:29:50.381Z,145
2019-04-19T09:30:27.283Z,145
2019-04-19T09:31:04.216Z,145
2019-04-19T09:31:42.592Z,150
2019-04-19T09:32:20.037Z,145
2019-04-19T09:32:53.486Z,145
2019-04-19T09:33:37.992Z,145
2019-04-19T09:34:19.836Z,145
2019-04-19T09:35:02.261Z,145
2019-04-19T09:35:49.402Z,145
2019-04-19T09:36:30.302Z,145
2019-04-19T09:37:11.395Z,145
2019-04-19T09:37:55.331Z,145
2019-04-19T09:38:39.011Z,140
2019-04-19T09:39:21.796Z,140
2019-04-19T09:39:56.260Z,140
2019-04-19T09:40:37.208Z,140
2019-04-19T09:41:19.075Z,140
2019-04-19T09:41:57.151Z,140
2019-04-19T09:42:42.020Z,140
2019-04-19T09:43:28.150Z,140
2019-04-19T09:44:03.373Z,140
2019-04-19T09:44:41.433Z,140
2019-04-19T09:45:18.826Z,140
2019-04-19T09:45:59.570Z,140
2019-04-19T09:46:42.452Z,140
2019-04-19T09:47:22.953Z,140
2019-04-19T09:48:05.087Z,140
2019-04-19T09:49:00.658Z,135
2019-04-19T09:49:43.745Z,135
2019-04-19T09:50:17.893Z,135
2019-04-19T09:51:03.007Z,135
2019-04-19T09:51:46.676Z,135
2019-04-19T09:52:35.327Z,140
2019-04-19T09:53:14.465Z,140
2019-04-19T09:54:02.501Z,135
2019-04-19T09:54:38.467Z,135
2019-04-19T09:55:21.164Z,135
2019-04-19T09:56:01.373Z,135
2019-04-19T09:56:35.679Z,135
2019-04-19T09:57:23.604Z,135
2019-04-19T09:57:59.688Z,135
2019-04-19T09:58:38.371Z,135
2019-04-19T09:59:14.044Z,130
2019-04-19T09:59:48.886Z,130
2019-04-19T10:00:29.975Z,130
2019-04-19T10:01:10.551Z,130
2019-04-19T10:01:56.005Z,130
2019-04-19T10:02:41.046Z,130
2019-04-19T10:03:21.727Z,130
2019-04-19T10:03:59.368Z,130
2019-04-19T10:04:36.179Z,130
2019-04-19T10:05:18.890Z,130
2019-04-19T10:05:59.438Z,135
2019-04-19T10:06:40.714Z,130
2019-04-19T10:07:22.864Z,130
2019-04-19T10:08:03.864Z,130
2019-04-19T10:08:43.378Z,135
2019-04-19T10:09:25.986Z,130
2019-04-19T10:10:09.517Z,130
2019-04-19T10:10:48.012Z,125
2019-04-19T10:11:27.580Z,130
2019-04-19T10:12:09.087Z,125
2019-04-19T10:12:49.842Z,125
2019-04-19T10:13:32.036Z,125